sensor_id;sensor_type;location;lat;lon;timestamp;temperature;humidity
947;DHT22;460;48.734;9.152;2024-01-11T00:02:05;-4.50;97.40
947;DHT22;460;48.734;9.152;2024-01-11T00:04:33;-4.50;97.50
947;DHT22;460;48.734;9.152;2024-01-11T00:07:00;-4.50;97.60
947;DHT22;460;48.734;9.152;2024-01-11T00:09:27;-4.50;97.70
947;DHT22;460;48.734;9.152;2024-01-11T00:11:54;-4.50;97.80
947;DHT22;460;48.734;9.152;2024-01-11T00:14:21;-4.50;97.90
947;DHT22;460;48.734;9.152;2024-01-11T00:16:47;-4.50;97.40
947;DHT22;460;48.734;9.152;2024-01-11T00:19:14;-4.40;97.10
947;DHT22;460;48.734;9.152;2024-01-11T00:21:42;-4.50;96.80
947;DHT22;460;48.734;9.152;2024-01-11T00:24:09;-4.60;96.90
947;DHT22;460;48.734;9.152;2024-01-11T00:26:36;-4.70;96.90
947;DHT22;460;48.734;9.152;2024-01-11T00:29:02;-4.80;97.20
947;DHT22;460;48.734;9.152;2024-01-11T00:31:30;-4.70;97.70
947;DHT22;460;48.734;9.152;2024-01-11T00:33:56;-4.70;97.70
947;DHT22;460;48.734;9.152;2024-01-11T00:36:23;-4.70;97.50
947;DHT22;460;48.734;9.152;2024-01-11T00:38:51;-4.90;97.60
947;DHT22;460;48.734;9.152;2024-01-11T00:41:18;-4.80;98.20
947;DHT22;460;48.734;9.152;2024-01-11T00:43:45;-4.80;98.40
947;DHT22;460;48.734;9.152;2024-01-11T00:46:12;-4.80;98.40
947;DHT22;460;48.734;9.152;2024-01-11T00:48:38;-4.80;98.60
947;DHT22;460;48.734;9.152;2024-01-11T00:51:06;-4.80;98.50
947;DHT22;460;48.734;9.152;2024-01-11T00:53:33;-4.90;98.50
947;DHT22;460;48.734;9.152;2024-01-11T00:56:01;-5.00;98.70
947;DHT22;460;48.734;9.152;2024-01-11T00:58:28;-4.90;99.10
947;DHT22;460;48.734;9.152;2024-01-11T01:00:55;-4.90;99.10
947;DHT22;460;48.734;9.152;2024-01-11T01:03:22;-5.00;99.20
947;DHT22;460;48.734;9.152;2024-01-11T01:05:49;-5.00;99.30
947;DHT22;460;48.734;9.152;2024-01-11T01:08:16;-4.90;99.60
947;DHT22;460;48.734;9.152;2024-01-11T01:10:42;-4.90;99.20
947;DHT22;460;48.734;9.152;2024-01-11T01:13:11;-5.00;99.30
947;DHT22;460;48.734;9.152;2024-01-11T01:15:37;-5.00;99.40
947;DHT22;460;48.734;9.152;2024-01-11T01:18:05;-4.90;99.20
947;DHT22;460;48.734;9.152;2024-01-11T01:20:31;-4.80;98.50
947;DHT22;460;48.734;9.152;2024-01-11T01:22:58;-4.80;97.90
947;DHT22;460;48.734;9.152;2024-01-11T01:25:25;-4.80;97.90
947;DHT22;460;48.734;9.152;2024-01-11T01:27:52;-4.90;97.80
947;DHT22;460;48.734;9.152;2024-01-11T01:30:20;-4.90;98.20
947;DHT22;460;48.734;9.152;2024-01-11T01:32:47;-4.90;98.60
947;DHT22;460;48.734;9.152;2024-01-11T01:35:14;-5.00;99.00
947;DHT22;460;48.734;9.152;2024-01-11T01:37:40;-5.00;99.70
947;DHT22;460;48.734;9.152;2024-01-11T01:40:09;-5.00;99.50
947;DHT22;460;48.734;9.152;2024-01-11T01:42:36;-5.00;99.60
947;DHT22;460;48.734;9.152;2024-01-11T01:45:08;-5.10;99.60
947;DHT22;460;48.734;9.152;2024-01-11T01:47:36;-4.90;99.60
947;DHT22;460;48.734;9.152;2024-01-11T01:50:04;-4.90;99.30
947;DHT22;460;48.734;9.152;2024-01-11T01:52:32;-4.90;98.80
947;DHT22;460;48.734;9.152;2024-01-11T01:55:01;-4.80;98.40
947;DHT22;460;48.734;9.152;2024-01-11T01:57:30;-4.90;98.00
947;DHT22;460;48.734;9.152;2024-01-11T01:59:59;-4.90;98.00
947;DHT22;460;48.734;9.152;2024-01-11T02:02:27;-4.90;98.10
947;DHT22;460;48.734;9.152;2024-01-11T02:04:57;-5.00;97.90
947;DHT22;460;48.734;9.152;2024-01-11T02:07:25;-5.00;97.90
947;DHT22;460;48.734;9.152;2024-01-11T02:09:53;-5.00;98.00
947;DHT22;460;48.734;9.152;2024-01-11T02:12:22;-5.00;98.20
947;DHT22;460;48.734;9.152;2024-01-11T02:14:50;-5.00;98.60
947;DHT22;460;48.734;9.152;2024-01-11T02:17:17;-5.20;98.60
947;DHT22;460;48.734;9.152;2024-01-11T02:19:44;-5.20;99.10
947;DHT22;460;48.734;9.152;2024-01-11T02:22:15;-5.20;99.40
947;DHT22;460;48.734;9.152;2024-01-11T02:24:45;-5.20;99.70
947;DHT22;460;48.734;9.152;2024-01-11T02:27:12;-5.20;99.90
947;DHT22;460;48.734;9.152;2024-01-11T02:29:39;-5.10;99.90
947;DHT22;460;48.734;9.152;2024-01-11T02:32:06;-5.20;99.90
947;DHT22;460;48.734;9.152;2024-01-11T02:34:35;-5.10;99.90
947;DHT22;460;48.734;9.152;2024-01-11T02:37:04;-5.00;99.90
947;DHT22;460;48.734;9.152;2024-01-11T02:39:32;-5.00;99.90
947;DHT22;460;48.734;9.152;2024-01-11T02:42:05;-5.10;99.90
947;DHT22;460;48.734;9.152;2024-01-11T02:44:33;-5.20;99.90
947;DHT22;460;48.734;9.152;2024-01-11T02:47:01;-5.20;99.90
947;DHT22;460;48.734;9.152;2024-01-11T02:49:29;-5.20;99.90
947;DHT22;460;48.734;9.152;2024-01-11T02:51:57;-5.30;99.90
947;DHT22;460;48.734;9.152;2024-01-11T02:54:25;-5.20;99.90
947;DHT22;460;48.734;9.152;2024-01-11T02:56:52;-5.30;99.90
947;DHT22;460;48.734;9.152;2024-01-11T02:59:22;-5.30;99.90
947;DHT22;460;48.734;9.152;2024-01-11T03:01:50;-5.30;99.90
947;DHT22;460;48.734;9.152;2024-01-11T03:04:18;-5.30;99.90
947;DHT22;460;48.734;9.152;2024-01-11T03:06:45;-5.40;99.90
947;DHT22;460;48.734;9.152;2024-01-11T03:09:13;-5.40;99.90
947;DHT22;460;48.734;9.152;2024-01-11T03:11:41;-5.30;99.90
947;DHT22;460;48.734;9.152;2024-01-11T03:14:08;-5.30;99.90
947;DHT22;460;48.734;9.152;2024-01-11T03:16:36;-5.20;99.90
947;DHT22;460;48.734;9.152;2024-01-11T03:19:06;-5.20;99.90
947;DHT22;460;48.734;9.152;2024-01-11T03:21:33;-5.10;99.90
947;DHT22;460;48.734;9.152;2024-01-11T03:24:00;-5.20;99.90
947;DHT22;460;48.734;9.152;2024-01-11T03:26:28;-5.20;99.90
947;DHT22;460;48.734;9.152;2024-01-11T03:28:55;-5.30;99.90
947;DHT22;460;48.734;9.152;2024-01-11T03:31:23;-5.30;99.90
947;DHT22;460;48.734;9.152;2024-01-11T03:33:52;-5.30;99.90
947;DHT22;460;48.734;9.152;2024-01-11T03:36:23;-5.20;99.90
947;DHT22;460;48.734;9.152;2024-01-11T03:38:51;-5.10;99.90
947;DHT22;460;48.734;9.152;2024-01-11T03:41:19;-5.10;99.70
947;DHT22;460;48.734;9.152;2024-01-11T03:43:46;-5.10;99.20
947;DHT22;460;48.734;9.152;2024-01-11T03:46:13;-5.10;99.30
947;DHT22;460;48.734;9.152;2024-01-11T03:48:40;-5.30;98.90
947;DHT22;460;48.734;9.152;2024-01-11T03:51:08;-5.30;99.40
947;DHT22;460;48.734;9.152;2024-01-11T03:53:36;-5.40;99.60
947;DHT22;460;48.734;9.152;2024-01-11T03:56:03;-5.40;99.80
947;DHT22;460;48.734;9.152;2024-01-11T03:58:30;-5.60;99.90
947;DHT22;460;48.734;9.152;2024-01-11T04:00:58;-5.60;99.90
947;DHT22;460;48.734;9.152;2024-01-11T04:03:25;-5.60;99.90
947;DHT22;460;48.734;9.152;2024-01-11T04:05:52;-5.60;99.90
947;DHT22;460;48.734;9.152;2024-01-11T04:08:20;-5.60;99.90
947;DHT22;460;48.734;9.152;2024-01-11T04:10:46;-5.70;99.90
947;DHT22;460;48.734;9.152;2024-01-11T04:13:13;-5.70;99.90
947;DHT22;460;48.734;9.152;2024-01-11T04:15:40;-5.70;99.90
947;DHT22;460;48.734;9.152;2024-01-11T04:18:07;-5.80;99.90
947;DHT22;460;48.734;9.152;2024-01-11T04:20:34;-5.70;99.90
947;DHT22;460;48.734;9.152;2024-01-11T04:23:01;-5.80;99.90
947;DHT22;460;48.734;9.152;2024-01-11T04:25:29;-5.80;99.90
947;DHT22;460;48.734;9.152;2024-01-11T04:27:55;-5.70;99.90
947;DHT22;460;48.734;9.152;2024-01-11T04:30:22;-5.70;99.90
947;DHT22;460;48.734;9.152;2024-01-11T04:32:49;-5.70;99.90
947;DHT22;460;48.734;9.152;2024-01-11T04:35:16;-5.70;99.90
947;DHT22;460;48.734;9.152;2024-01-11T04:37:42;-5.60;99.90
947;DHT22;460;48.734;9.152;2024-01-11T04:40:10;-5.60;99.90
947;DHT22;460;48.734;9.152;2024-01-11T04:42:38;-5.60;99.90
947;DHT22;460;48.734;9.152;2024-01-11T04:45:05;-5.50;99.90
947;DHT22;460;48.734;9.152;2024-01-11T04:47:32;-5.50;99.90
947;DHT22;460;48.734;9.152;2024-01-11T04:49:58;-5.60;99.90
947;DHT22;460;48.734;9.152;2024-01-11T04:52:25;-5.70;99.90
947;DHT22;460;48.734;9.152;2024-01-11T04:54:52;-5.70;99.90
947;DHT22;460;48.734;9.152;2024-01-11T04:57:19;-5.70;99.90
947;DHT22;460;48.734;9.152;2024-01-11T04:59:47;-5.60;99.90
947;DHT22;460;48.734;9.152;2024-01-11T05:02:14;-5.60;99.90
947;DHT22;460;48.734;9.152;2024-01-11T05:04:40;-5.40;99.90
947;DHT22;460;48.734;9.152;2024-01-11T05:07:07;-5.50;99.90
947;DHT22;460;48.734;9.152;2024-01-11T05:09:34;-5.40;99.90
947;DHT22;460;48.734;9.152;2024-01-11T05:12:01;-5.40;99.90
947;DHT22;460;48.734;9.152;2024-01-11T05:14:27;-5.40;99.50
947;DHT22;460;48.734;9.152;2024-01-11T05:16:55;-5.30;99.10
947;DHT22;460;48.734;9.152;2024-01-11T05:19:22;-5.20;99.00
947;DHT22;460;48.734;9.152;2024-01-11T05:21:49;-5.30;98.80
947;DHT22;460;48.734;9.152;2024-01-11T05:24:16;-5.40;98.80
947;DHT22;460;48.734;9.152;2024-01-11T05:26:42;-5.40;98.70
947;DHT22;460;48.734;9.152;2024-01-11T05:29:09;-5.60;98.40
947;DHT22;460;48.734;9.152;2024-01-11T05:31:36;-5.50;98.60
947;DHT22;460;48.734;9.152;2024-01-11T05:34:04;-5.70;98.50
947;DHT22;460;48.734;9.152;2024-01-11T05:36:31;-5.90;98.90
947;DHT22;460;48.734;9.152;2024-01-11T05:38:58;-5.80;99.90
947;DHT22;460;48.734;9.152;2024-01-11T05:41:25;-5.80;99.90
947;DHT22;460;48.734;9.152;2024-01-11T05:43:51;-5.70;99.90
947;DHT22;460;48.734;9.152;2024-01-11T05:46:18;-5.70;99.90
947;DHT22;460;48.734;9.152;2024-01-11T05:48:45;-5.70;99.90
947;DHT22;460;48.734;9.152;2024-01-11T05:51:13;-5.70;99.90
947;DHT22;460;48.734;9.152;2024-01-11T05:53:40;-5.60;99.90
947;DHT22;460;48.734;9.152;2024-01-11T05:56:07;-5.50;99.90
947;DHT22;460;48.734;9.152;2024-01-11T05:58:34;-5.50;99.90
947;DHT22;460;48.734;9.152;2024-01-11T06:01:02;-5.50;99.90
947;DHT22;460;48.734;9.152;2024-01-11T06:03:29;-5.50;99.90
947;DHT22;460;48.734;9.152;2024-01-11T06:05:59;-5.60;99.90
947;DHT22;460;48.734;9.152;2024-01-11T06:08:29;-5.60;99.90
947;DHT22;460;48.734;9.152;2024-01-11T06:10:55;-5.60;99.90
947;DHT22;460;48.734;9.152;2024-01-11T06:13:22;-5.70;99.90
947;DHT22;460;48.734;9.152;2024-01-11T06:15:49;-5.70;99.90
947;DHT22;460;48.734;9.152;2024-01-11T06:18:16;-5.70;99.90
947;DHT22;460;48.734;9.152;2024-01-11T06:20:43;-5.70;99.90
947;DHT22;460;48.734;9.152;2024-01-11T06:23:09;-5.60;99.90
947;DHT22;460;48.734;9.152;2024-01-11T06:25:38;-5.70;99.90
947;DHT22;460;48.734;9.152;2024-01-11T06:28:06;-5.70;99.90
947;DHT22;460;48.734;9.152;2024-01-11T06:30:35;-5.80;99.90
947;DHT22;460;48.734;9.152;2024-01-11T06:33:02;-5.80;99.90
947;DHT22;460;48.734;9.152;2024-01-11T06:35:28;-5.90;99.90
947;DHT22;460;48.734;9.152;2024-01-11T06:37:56;-5.80;99.90
947;DHT22;460;48.734;9.152;2024-01-11T06:40:23;-5.90;99.90
947;DHT22;460;48.734;9.152;2024-01-11T06:42:51;-5.80;99.90
947;DHT22;460;48.734;9.152;2024-01-11T06:45:18;-5.70;99.90
947;DHT22;460;48.734;9.152;2024-01-11T06:47:45;-5.70;99.90
947;DHT22;460;48.734;9.152;2024-01-11T06:50:12;-5.80;99.90
947;DHT22;460;48.734;9.152;2024-01-11T06:52:39;-5.80;99.90
947;DHT22;460;48.734;9.152;2024-01-11T06:55:07;-5.90;99.90
947;DHT22;460;48.734;9.152;2024-01-11T06:57:34;-5.80;99.90
947;DHT22;460;48.734;9.152;2024-01-11T07:00:03;-5.80;99.90
947;DHT22;460;48.734;9.152;2024-01-11T07:02:30;-5.70;99.90
947;DHT22;460;48.734;9.152;2024-01-11T07:04:57;-5.80;99.90
947;DHT22;460;48.734;9.152;2024-01-11T07:07:24;-5.90;99.90
947;DHT22;460;48.734;9.152;2024-01-11T07:09:52;-5.90;99.90
947;DHT22;460;48.734;9.152;2024-01-11T07:12:21;-5.90;99.90
947;DHT22;460;48.734;9.152;2024-01-11T07:14:47;-5.80;99.90
947;DHT22;460;48.734;9.152;2024-01-11T07:17:15;-5.90;99.90
947;DHT22;460;48.734;9.152;2024-01-11T07:19:42;-5.90;99.90
947;DHT22;460;48.734;9.152;2024-01-11T07:22:09;-6.00;99.90
947;DHT22;460;48.734;9.152;2024-01-11T07:24:37;-6.00;99.90
947;DHT22;460;48.734;9.152;2024-01-11T07:27:04;-5.80;99.90
947;DHT22;460;48.734;9.152;2024-01-11T07:29:31;-5.70;99.90
947;DHT22;460;48.734;9.152;2024-01-11T07:31:58;-5.80;99.90
947;DHT22;460;48.734;9.152;2024-01-11T07:34:26;-5.80;99.90
947;DHT22;460;48.734;9.152;2024-01-11T07:36:53;-5.80;99.90
947;DHT22;460;48.734;9.152;2024-01-11T07:39:20;-5.80;99.90
947;DHT22;460;48.734;9.152;2024-01-11T07:41:48;-5.70;99.90
947;DHT22;460;48.734;9.152;2024-01-11T07:44:14;-5.70;99.90
947;DHT22;460;48.734;9.152;2024-01-11T07:46:42;-5.60;99.90
947;DHT22;460;48.734;9.152;2024-01-11T07:49:08;-5.70;99.90
947;DHT22;460;48.734;9.152;2024-01-11T07:51:37;-5.50;99.90
947;DHT22;460;48.734;9.152;2024-01-11T07:54:04;-5.40;99.90
947;DHT22;460;48.734;9.152;2024-01-11T07:56:31;-5.40;99.90
947;DHT22;460;48.734;9.152;2024-01-11T07:58:58;-5.40;99.90
947;DHT22;460;48.734;9.152;2024-01-11T08:01:25;-5.30;99.90
947;DHT22;460;48.734;9.152;2024-01-11T08:03:51;-5.40;99.90
947;DHT22;460;48.734;9.152;2024-01-11T08:06:18;-5.40;99.90
947;DHT22;460;48.734;9.152;2024-01-11T08:08:46;-5.40;99.90
947;DHT22;460;48.734;9.152;2024-01-11T08:11:17;-5.40;99.90
947;DHT22;460;48.734;9.152;2024-01-11T08:13:44;-5.30;99.90
947;DHT22;460;48.734;9.152;2024-01-11T08:16:15;-5.30;99.90
947;DHT22;460;48.734;9.152;2024-01-11T08:18:43;-5.30;99.90
947;DHT22;460;48.734;9.152;2024-01-11T08:21:11;-5.20;99.90
947;DHT22;460;48.734;9.152;2024-01-11T08:23:39;-5.00;99.90
947;DHT22;460;48.734;9.152;2024-01-11T08:26:11;-4.90;99.90
947;DHT22;460;48.734;9.152;2024-01-11T08:28:38;-4.70;99.90
947;DHT22;460;48.734;9.152;2024-01-11T08:31:05;-4.60;99.90
947;DHT22;460;48.734;9.152;2024-01-11T08:33:32;-4.50;99.90
947;DHT22;460;48.734;9.152;2024-01-11T08:35:59;-4.50;99.90
947;DHT22;460;48.734;9.152;2024-01-11T08:38:29;-4.40;99.90
947;DHT22;460;48.734;9.152;2024-01-11T08:40:56;-4.20;99.90
947;DHT22;460;48.734;9.152;2024-01-11T08:43:25;-4.10;99.90
947;DHT22;460;48.734;9.152;2024-01-11T08:45:52;-4.20;99.90
947;DHT22;460;48.734;9.152;2024-01-11T08:48:19;-4.20;99.90
947;DHT22;460;48.734;9.152;2024-01-11T08:50:46;-4.10;99.90
947;DHT22;460;48.734;9.152;2024-01-11T08:53:13;-4.10;99.90
947;DHT22;460;48.734;9.152;2024-01-11T08:55:41;-4.10;99.90
947;DHT22;460;48.734;9.152;2024-01-11T08:58:08;-4.10;99.90
947;DHT22;460;48.734;9.152;2024-01-11T09:00:37;-4.20;99.90
947;DHT22;460;48.734;9.152;2024-01-11T09:03:04;-4.20;99.90
947;DHT22;460;48.734;9.152;2024-01-11T09:05:31;-4.10;99.90
947;DHT22;460;48.734;9.152;2024-01-11T09:07:58;-4.10;99.90
947;DHT22;460;48.734;9.152;2024-01-11T09:10:25;-4.10;99.90
947;DHT22;460;48.734;9.152;2024-01-11T09:12:52;-4.10;99.90
947;DHT22;460;48.734;9.152;2024-01-11T09:15:20;-4.00;99.90
947;DHT22;460;48.734;9.152;2024-01-11T09:17:48;-4.00;99.90
947;DHT22;460;48.734;9.152;2024-01-11T09:20:15;-4.00;99.90
947;DHT22;460;48.734;9.152;2024-01-11T09:22:44;-3.90;99.90
947;DHT22;460;48.734;9.152;2024-01-11T09:25:11;-3.80;99.90
947;DHT22;460;48.734;9.152;2024-01-11T09:27:38;-3.60;99.90
947;DHT22;460;48.734;9.152;2024-01-11T09:30:06;-3.60;99.90
947;DHT22;460;48.734;9.152;2024-01-11T09:32:34;-3.70;99.90
947;DHT22;460;48.734;9.152;2024-01-11T09:35:02;-3.70;99.90
947;DHT22;460;48.734;9.152;2024-01-11T09:37:30;-3.70;99.90
947;DHT22;460;48.734;9.152;2024-01-11T09:39:57;-3.70;99.90
947;DHT22;460;48.734;9.152;2024-01-11T09:42:25;-3.70;99.90
947;DHT22;460;48.734;9.152;2024-01-11T09:44:53;-3.60;99.90
947;DHT22;460;48.734;9.152;2024-01-11T09:47:22;-3.60;99.90
947;DHT22;460;48.734;9.152;2024-01-11T09:49:50;-3.50;99.90
947;DHT22;460;48.734;9.152;2024-01-11T09:52:20;-3.50;99.90
947;DHT22;460;48.734;9.152;2024-01-11T09:54:47;-3.40;99.90
947;DHT22;460;48.734;9.152;2024-01-11T09:57:18;-3.30;99.90
947;DHT22;460;48.734;9.152;2024-01-11T09:59:45;-3.30;99.90
947;DHT22;460;48.734;9.152;2024-01-11T10:02:12;-3.10;99.90
947;DHT22;460;48.734;9.152;2024-01-11T10:04:42;-3.20;99.90
947;DHT22;460;48.734;9.152;2024-01-11T10:07:09;-3.20;99.90
947;DHT22;460;48.734;9.152;2024-01-11T10:09:37;-3.30;99.90
947;DHT22;460;48.734;9.152;2024-01-11T10:12:05;-3.40;99.90
947;DHT22;460;48.734;9.152;2024-01-11T10:14:32;-3.30;99.90
947;DHT22;460;48.734;9.152;2024-01-11T10:16:59;-3.10;99.90
947;DHT22;460;48.734;9.152;2024-01-11T10:19:25;-3.10;99.90
947;DHT22;460;48.734;9.152;2024-01-11T10:21:52;-3.00;99.90
947;DHT22;460;48.734;9.152;2024-01-11T10:24:19;-3.00;99.60
947;DHT22;460;48.734;9.152;2024-01-11T10:26:49;-3.00;99.60
947;DHT22;460;48.734;9.152;2024-01-11T10:29:16;-2.90;99.60
947;DHT22;460;48.734;9.152;2024-01-11T10:31:43;-2.90;99.50
947;DHT22;460;48.734;9.152;2024-01-11T10:34:10;-2.90;99.10
947;DHT22;460;48.734;9.152;2024-01-11T10:36:37;-2.90;99.00
947;DHT22;460;48.734;9.152;2024-01-11T10:39:04;-2.90;98.80
947;DHT22;460;48.734;9.152;2024-01-11T10:41:32;-2.80;98.90
947;DHT22;460;48.734;9.152;2024-01-11T10:44:06;-2.70;99.00
947;DHT22;460;48.734;9.152;2024-01-11T10:46:35;-2.70;98.70
947;DHT22;460;48.734;9.152;2024-01-11T10:49:04;-2.70;98.60
947;DHT22;460;48.734;9.152;2024-01-11T10:51:33;-2.80;98.40
947;DHT22;460;48.734;9.152;2024-01-11T10:54:00;-2.70;98.70
947;DHT22;460;48.734;9.152;2024-01-11T10:56:28;-2.70;98.80
947;DHT22;460;48.734;9.152;2024-01-11T10:58:57;-2.60;98.70
947;DHT22;460;48.734;9.152;2024-01-11T11:01:26;-2.60;98.70
947;DHT22;460;48.734;9.152;2024-01-11T11:03:52;-2.50;98.80
947;DHT22;460;48.734;9.152;2024-01-11T11:06:22;-2.40;98.70
947;DHT22;460;48.734;9.152;2024-01-11T11:08:50;-2.30;98.60
947;DHT22;460;48.734;9.152;2024-01-11T11:11:19;-2.20;98.40
947;DHT22;460;48.734;9.152;2024-01-11T11:13:47;-2.20;98.20
947;DHT22;460;48.734;9.152;2024-01-11T11:16:15;-2.10;98.20
947;DHT22;460;48.734;9.152;2024-01-11T11:18:43;-2.00;98.10
947;DHT22;460;48.734;9.152;2024-01-11T11:21:10;-1.90;98.10
947;DHT22;460;48.734;9.152;2024-01-11T11:23:37;-1.90;97.70
947;DHT22;460;48.734;9.152;2024-01-11T11:26:06;-1.80;97.80
947;DHT22;460;48.734;9.152;2024-01-11T11:28:33;-1.70;97.70
947;DHT22;460;48.734;9.152;2024-01-11T11:31:02;-1.70;97.60
947;DHT22;460;48.734;9.152;2024-01-11T11:33:29;-1.70;97.30
947;DHT22;460;48.734;9.152;2024-01-11T11:35:58;-1.70;97.20
947;DHT22;460;48.734;9.152;2024-01-11T11:38:26;-1.70;97.30
947;DHT22;460;48.734;9.152;2024-01-11T11:40:56;-1.60;96.90
947;DHT22;460;48.734;9.152;2024-01-11T11:43:23;-1.60;97.10
947;DHT22;460;48.734;9.152;2024-01-11T11:45:51;-1.40;97.30
947;DHT22;460;48.734;9.152;2024-01-11T11:48:50;-1.40;97.10
947;DHT22;460;48.734;9.152;2024-01-11T11:51:19;-1.40;96.60
947;DHT22;460;48.734;9.152;2024-01-11T11:53:47;-1.30;96.60
947;DHT22;460;48.734;9.152;2024-01-11T11:56:16;-1.30;96.60
947;DHT22;460;48.734;9.152;2024-01-11T11:58:44;-1.20;96.60
947;DHT22;460;48.734;9.152;2024-01-11T12:01:13;-1.10;96.50
947;DHT22;460;48.734;9.152;2024-01-11T12:03:41;-1.10;96.40
947;DHT22;460;48.734;9.152;2024-01-11T12:06:12;-1.10;96.50
947;DHT22;460;48.734;9.152;2024-01-11T12:08:43;-1.00;96.40
947;DHT22;460;48.734;9.152;2024-01-11T12:11:13;-1.00;96.20
947;DHT22;460;48.734;9.152;2024-01-11T12:13:40;-0.90;95.90
947;DHT22;460;48.734;9.152;2024-01-11T12:16:07;-0.90;95.90
947;DHT22;460;48.734;9.152;2024-01-11T12:18:33;-0.90;95.90
947;DHT22;460;48.734;9.152;2024-01-11T12:21:00;-1.00;95.70
947;DHT22;460;48.734;9.152;2024-01-11T12:23:27;-1.00;95.40
947;DHT22;460;48.734;9.152;2024-01-11T12:25:56;-1.00;95.90
947;DHT22;460;48.734;9.152;2024-01-11T12:28:23;-0.90;96.00
947;DHT22;460;48.734;9.152;2024-01-11T12:30:50;-0.80;95.60
947;DHT22;460;48.734;9.152;2024-01-11T12:33:17;-0.80;95.50
947;DHT22;460;48.734;9.152;2024-01-11T12:35:45;-0.70;95.80
947;DHT22;460;48.734;9.152;2024-01-11T12:38:12;-0.70;95.60
947;DHT22;460;48.734;9.152;2024-01-11T12:40:39;-0.70;95.50
947;DHT22;460;48.734;9.152;2024-01-11T12:43:07;-0.60;95.40
947;DHT22;460;48.734;9.152;2024-01-11T12:45:34;-0.60;95.20
947;DHT22;460;48.734;9.152;2024-01-11T12:48:02;-0.60;95.60
947;DHT22;460;48.734;9.152;2024-01-11T12:50:30;-0.60;95.50
947;DHT22;460;48.734;9.152;2024-01-11T12:53:07;-0.60;95.20
947;DHT22;460;48.734;9.152;2024-01-11T12:55:34;-0.50;95.40
947;DHT22;460;48.734;9.152;2024-01-11T12:58:07;-0.40;95.50
947;DHT22;460;48.734;9.152;2024-01-11T13:00:35;-0.40;95.30
947;DHT22;460;48.734;9.152;2024-01-11T13:03:02;-0.40;95.30
947;DHT22;460;48.734;9.152;2024-01-11T13:05:30;-0.40;95.40
947;DHT22;460;48.734;9.152;2024-01-11T13:08:00;-0.20;95.00
947;DHT22;460;48.734;9.152;2024-01-11T13:10:28;-0.30;95.00
947;DHT22;460;48.734;9.152;2024-01-11T13:12:56;-0.30;94.90
947;DHT22;460;48.734;9.152;2024-01-11T13:15:24;-0.30;94.80
947;DHT22;460;48.734;9.152;2024-01-11T13:17:51;-0.30;94.90
947;DHT22;460;48.734;9.152;2024-01-11T13:20:18;-0.30;94.80
947;DHT22;460;48.734;9.152;2024-01-11T13:22:45;-0.30;94.70
947;DHT22;460;48.734;9.152;2024-01-11T13:25:12;-0.30;94.90
947;DHT22;460;48.734;9.152;2024-01-11T13:27:39;-0.20;95.10
947;DHT22;460;48.734;9.152;2024-01-11T13:30:06;-0.30;94.40
947;DHT22;460;48.734;9.152;2024-01-11T13:32:35;-0.30;94.40
947;DHT22;460;48.734;9.152;2024-01-11T13:35:02;-0.30;94.50
947;DHT22;460;48.734;9.152;2024-01-11T13:37:29;-0.20;94.30
947;DHT22;460;48.734;9.152;2024-01-11T13:39:56;-0.20;94.00
947;DHT22;460;48.734;9.152;2024-01-11T13:42:23;-0.30;93.90
947;DHT22;460;48.734;9.152;2024-01-11T13:44:49;-0.30;94.40
947;DHT22;460;48.734;9.152;2024-01-11T13:47:16;-0.20;94.40
947;DHT22;460;48.734;9.152;2024-01-11T13:49:44;-0.20;94.00
947;DHT22;460;48.734;9.152;2024-01-11T13:52:12;-0.30;94.20
947;DHT22;460;48.734;9.152;2024-01-11T13:54:39;-0.20;94.10
947;DHT22;460;48.734;9.152;2024-01-11T13:57:06;-0.20;93.60
947;DHT22;460;48.734;9.152;2024-01-11T13:59:33;-0.20;94.00
947;DHT22;460;48.734;9.152;2024-01-11T14:01:59;-0.20;94.20
947;DHT22;460;48.734;9.152;2024-01-11T14:04:27;-0.30;94.10
947;DHT22;460;48.734;9.152;2024-01-11T14:06:55;-0.40;94.10
947;DHT22;460;48.734;9.152;2024-01-11T14:09:22;-0.40;94.50
947;DHT22;460;48.734;9.152;2024-01-11T14:11:49;-0.40;94.30
947;DHT22;460;48.734;9.152;2024-01-11T14:14:16;-0.40;94.40
947;DHT22;460;48.734;9.152;2024-01-11T14:16:44;-0.40;94.60
947;DHT22;460;48.734;9.152;2024-01-11T14:19:11;-0.30;94.50
947;DHT22;460;48.734;9.152;2024-01-11T14:21:38;-0.30;94.60
947;DHT22;460;48.734;9.152;2024-01-11T14:24:06;-0.40;94.50
947;DHT22;460;48.734;9.152;2024-01-11T14:26:34;-0.40;94.50
947;DHT22;460;48.734;9.152;2024-01-11T14:29:01;-0.40;94.50
947;DHT22;460;48.734;9.152;2024-01-11T14:31:28;-0.30;94.50
947;DHT22;460;48.734;9.152;2024-01-11T14:33:55;-0.30;94.40
947;DHT22;460;48.734;9.152;2024-01-11T14:36:22;-0.40;94.40
947;DHT22;460;48.734;9.152;2024-01-11T14:38:49;-0.50;94.60
947;DHT22;460;48.734;9.152;2024-01-11T14:41:17;-0.40;94.50
947;DHT22;460;48.734;9.152;2024-01-11T14:43:45;-0.50;94.50
947;DHT22;460;48.734;9.152;2024-01-11T14:46:12;-0.50;94.70
947;DHT22;460;48.734;9.152;2024-01-11T14:48:39;-0.50;94.60
947;DHT22;460;48.734;9.152;2024-01-11T14:51:06;-0.50;94.60
947;DHT22;460;48.734;9.152;2024-01-11T14:53:34;-0.50;94.50
947;DHT22;460;48.734;9.152;2024-01-11T14:56:01;-0.50;94.60
947;DHT22;460;48.734;9.152;2024-01-11T14:58:29;-0.60;94.60
947;DHT22;460;48.734;9.152;2024-01-11T15:00:57;-0.70;94.50
947;DHT22;460;48.734;9.152;2024-01-11T15:03:25;-0.70;94.80
947;DHT22;460;48.734;9.152;2024-01-11T15:05:52;-0.80;94.70
947;DHT22;460;48.734;9.152;2024-01-11T15:08:19;-0.70;94.90
947;DHT22;460;48.734;9.152;2024-01-11T15:10:46;-0.70;95.00
947;DHT22;460;48.734;9.152;2024-01-11T15:13:13;-0.70;94.90
947;DHT22;460;48.734;9.152;2024-01-11T15:15:41;-0.70;94.90
947;DHT22;460;48.734;9.152;2024-01-11T15:18:08;-0.70;94.80
947;DHT22;460;48.734;9.152;2024-01-11T15:20:35;-0.80;95.00
947;DHT22;460;48.734;9.152;2024-01-11T15:23:02;-0.80;95.10
947;DHT22;460;48.734;9.152;2024-01-11T15:25:30;-0.90;95.30
947;DHT22;460;48.734;9.152;2024-01-11T15:27:57;-1.00;95.00
947;DHT22;460;48.734;9.152;2024-01-11T15:30:24;-1.00;95.40
947;DHT22;460;48.734;9.152;2024-01-11T15:32:52;-1.10;95.30
947;DHT22;460;48.734;9.152;2024-01-11T15:35:19;-1.20;95.50
947;DHT22;460;48.734;9.152;2024-01-11T15:37:46;-1.30;95.70
947;DHT22;460;48.734;9.152;2024-01-11T15:40:13;-1.30;95.80
947;DHT22;460;48.734;9.152;2024-01-11T15:42:40;-1.40;95.90
947;DHT22;460;48.734;9.152;2024-01-11T15:45:08;-1.40;96.00
947;DHT22;460;48.734;9.152;2024-01-11T15:47:36;-1.40;96.10
947;DHT22;460;48.734;9.152;2024-01-11T15:50:06;-1.40;96.20
947;DHT22;460;48.734;9.152;2024-01-11T15:52:36;-1.40;96.20
947;DHT22;460;48.734;9.152;2024-01-11T15:55:04;-1.50;96.20
947;DHT22;460;48.734;9.152;2024-01-11T15:57:31;-1.50;96.30
947;DHT22;460;48.734;9.152;2024-01-11T15:59:57;-1.60;96.40
947;DHT22;460;48.734;9.152;2024-01-11T16:02:24;-1.70;96.30
947;DHT22;460;48.734;9.152;2024-01-11T16:04:51;-1.70;96.40
947;DHT22;460;48.734;9.152;2024-01-11T16:07:20;-1.80;96.40
947;DHT22;460;48.734;9.152;2024-01-11T16:09:46;-1.80;96.50
947;DHT22;460;48.734;9.152;2024-01-11T16:12:15;-1.90;96.50
947;DHT22;460;48.734;9.152;2024-01-11T16:14:43;-1.90;96.70
947;DHT22;460;48.734;9.152;2024-01-11T16:17:10;-2.00;96.70
947;DHT22;460;48.734;9.152;2024-01-11T16:19:37;-2.00;96.70
947;DHT22;460;48.734;9.152;2024-01-11T16:22:05;-1.90;96.90
947;DHT22;460;48.734;9.152;2024-01-11T16:24:33;-1.90;96.90
947;DHT22;460;48.734;9.152;2024-01-11T16:27:00;-1.90;96.90
947;DHT22;460;48.734;9.152;2024-01-11T16:29:27;-1.90;96.90
947;DHT22;460;48.734;9.152;2024-01-11T16:31:54;-1.90;96.80
947;DHT22;460;48.734;9.152;2024-01-11T16:34:21;-2.00;96.90
947;DHT22;460;48.734;9.152;2024-01-11T16:36:47;-2.10;96.80